sensor_id;sensor_type;location;lat;lon;timestamp;P1;durP1;ratioP1;P2;durP2;ratioP2
19599;SDS011;9947;57.722;12.012;2023-05-20T00:00:26;24.07;;;11.00;;
19599;SDS011;9947;57.722;12.012;2023-05-20T00:02:54;26.07;;;11.97;;
19599;SDS011;9947;57.722;12.012;2023-05-20T00:05:26;23.10;;;11.77;;
19599;SDS011;9947;57.722;12.012;2023-05-20T00:07:54;22.67;;;11.77;;
19599;SDS011;9947;57.722;12.012;2023-05-20T00:10:22;22.63;;;11.70;;
19599;SDS011;9947;57.722;12.012;2023-05-20T00:12:51;23.83;;;11.87;;
19599;SDS011;9947;57.722;12.012;2023-05-20T00:15:18;22.60;;;12.10;;
19599;SDS011;9947;57.722;12.012;2023-05-20T00:17:45;22.97;;;12.10;;
19599;SDS011;9947;57.722;12.012;2023-05-20T00:20:14;21.57;;;12.20;;
19599;SDS011;9947;57.722;12.012;2023-05-20T00:22:45;21.10;;;11.03;;
19599;SDS011;9947;57.722;12.012;2023-05-20T00:25:13;24.70;;;11.87;;
19599;SDS011;9947;57.722;12.012;2023-05-20T00:27:41;21.03;;;11.47;;
19599;SDS011;9947;57.722;12.012;2023-05-20T00:30:12;22.60;;;11.67;;
19599;SDS011;9947;57.722;12.012;2023-05-20T00:32:43;19.73;;;11.50;;
19599;SDS011;9947;57.722;12.012;2023-05-20T00:35:13;23.07;;;11.87;;
19599;SDS011;9947;57.722;12.012;2023-05-20T00:37:40;22.57;;;12.27;;
19599;SDS011;9947;57.722;12.012;2023-05-20T00:40:11;21.40;;;11.47;;
19599;SDS011;9947;57.722;12.012;2023-05-20T00:42:40;18.67;;;10.70;;
19599;SDS011;9947;57.722;12.012;2023-05-20T00:45:07;25.30;;;12.60;;
19599;SDS011;9947;57.722;12.012;2023-05-20T00:47:35;23.73;;;12.13;;
19599;SDS011;9947;57.722;12.012;2023-05-20T00:50:02;25.67;;;12.77;;
19599;SDS011;9947;57.722;12.012;2023-05-20T00:52:34;26.03;;;12.70;;
19599;SDS011;9947;57.722;12.012;2023-05-20T00:55:05;22.90;;;12.60;;
19599;SDS011;9947;57.722;12.012;2023-05-20T00:57:36;21.00;;;11.67;;
19599;SDS011;9947;57.722;12.012;2023-05-20T01:00:04;28.50;;;12.57;;
19599;SDS011;9947;57.722;12.012;2023-05-20T01:02:34;23.23;;;12.10;;
19599;SDS011;9947;57.722;12.012;2023-05-20T01:05:02;18.83;;;10.50;;
19599;SDS011;9947;57.722;12.012;2023-05-20T01:07:32;21.40;;;12.07;;
19599;SDS011;9947;57.722;12.012;2023-05-20T01:09:59;25.47;;;11.90;;
19599;SDS011;9947;57.722;12.012;2023-05-20T01:12:30;20.73;;;11.47;;
19599;SDS011;9947;57.722;12.012;2023-05-20T01:15:04;22.33;;;11.80;;
19599;SDS011;9947;57.722;12.012;2023-05-20T01:17:35;23.20;;;11.63;;
19599;SDS011;9947;57.722;12.012;2023-05-20T01:20:09;25.73;;;12.33;;
19599;SDS011;9947;57.722;12.012;2023-05-20T01:22:45;27.13;;;11.67;;
19599;SDS011;9947;57.722;12.012;2023-05-20T01:25:17;19.23;;;11.67;;
19599;SDS011;9947;57.722;12.012;2023-05-20T01:27:49;24.37;;;12.17;;
19599;SDS011;9947;57.722;12.012;2023-05-20T01:30:18;21.60;;;11.80;;
19599;SDS011;9947;57.722;12.012;2023-05-20T01:32:46;19.73;;;11.77;;
19599;SDS011;9947;57.722;12.012;2023-05-20T01:35:16;21.20;;;11.73;;
19599;SDS011;9947;57.722;12.012;2023-05-20T01:37:47;20.23;;;11.50;;
19599;SDS011;9947;57.722;12.012;2023-05-20T01:40:17;18.97;;;11.23;;
19599;SDS011;9947;57.722;12.012;2023-05-20T01:42:46;25.00;;;11.80;;
19599;SDS011;9947;57.722;12.012;2023-05-20T01:45:18;22.67;;;11.97;;
19599;SDS011;9947;57.722;12.012;2023-05-20T01:47:47;22.23;;;12.17;;
19599;SDS011;9947;57.722;12.012;2023-05-20T01:50:17;20.93;;;11.33;;
19599;SDS011;9947;57.722;12.012;2023-05-20T01:52:48;22.50;;;10.97;;
19599;SDS011;9947;57.722;12.012;2023-05-20T01:55:15;23.10;;;11.47;;
19599;SDS011;9947;57.722;12.012;2023-05-20T01:57:44;24.50;;;12.90;;
19599;SDS011;9947;57.722;12.012;2023-05-20T02:00:11;21.97;;;11.87;;
19599;SDS011;9947;57.722;12.012;2023-05-20T02:02:40;25.97;;;12.67;;
19599;SDS011;9947;57.722;12.012;2023-05-20T02:05:08;23.53;;;12.70;;
19599;SDS011;9947;57.722;12.012;2023-05-20T02:07:36;23.73;;;11.03;;
19599;SDS011;9947;57.722;12.012;2023-05-20T02:10:05;19.97;;;11.37;;
19599;SDS011;9947;57.722;12.012;2023-05-20T02:12:37;21.60;;;11.83;;
19599;SDS011;9947;57.722;12.012;2023-05-20T02:15:05;22.27;;;11.67;;
19599;SDS011;9947;57.722;12.012;2023-05-20T02:17:36;23.60;;;12.17;;
19599;SDS011;9947;57.722;12.012;2023-05-20T02:20:07;25.33;;;12.53;;
19599;SDS011;9947;57.722;12.012;2023-05-20T02:22:35;23.37;;;12.80;;
19599;SDS011;9947;57.722;12.012;2023-05-20T02:25:02;24.27;;;12.40;;
19599;SDS011;9947;57.722;12.012;2023-05-20T02:27:34;26.20;;;12.50;;
19599;SDS011;9947;57.722;12.012;2023-05-20T02:30:09;25.03;;;12.57;;
19599;SDS011;9947;57.722;12.012;2023-05-20T02:32:40;25.97;;;13.07;;
19599;SDS011;9947;57.722;12.012;2023-05-20T02:35:08;23.33;;;12.40;;
19599;SDS011;9947;57.722;12.012;2023-05-20T02:37:44;22.53;;;11.83;;
19599;SDS011;9947;57.722;12.012;2023-05-20T02:40:14;20.80;;;11.33;;
19599;SDS011;9947;57.722;12.012;2023-05-20T02:42:42;21.80;;;11.37;;
19599;SDS011;9947;57.722;12.012;2023-05-20T02:45:15;27.80;;;12.40;;
19599;SDS011;9947;57.722;12.012;2023-05-20T02:47:42;23.47;;;11.60;;
19599;SDS011;9947;57.722;12.012;2023-05-20T02:50:10;23.50;;;11.70;;
19599;SDS011;9947;57.722;12.012;2023-05-20T02:52:39;23.93;;;12.00;;
19599;SDS011;9947;57.722;12.012;2023-05-20T02:55:08;19.93;;;11.93;;
19599;SDS011;9947;57.722;12.012;2023-05-20T02:57:43;20.80;;;11.60;;
19599;SDS011;9947;57.722;12.012;2023-05-20T03:00:18;20.30;;;11.60;;
19599;SDS011;9947;57.722;12.012;2023-05-20T03:02:47;19.90;;;11.77;;
19599;SDS011;9947;57.722;12.012;2023-05-20T03:05:17;21.60;;;11.57;;
19599;SDS011;9947;57.722;12.012;2023-05-20T03:07:44;18.27;;;10.73;;
19599;SDS011;9947;57.722;12.012;2023-05-20T03:10:14;27.00;;;12.63;;
19599;SDS011;9947;57.722;12.012;2023-05-20T03:12:43;20.50;;;11.00;;
19599;SDS011;9947;57.722;12.012;2023-05-20T03:15:13;27.20;;;12.53;;
19599;SDS011;9947;57.722;12.012;2023-05-20T03:17:42;20.37;;;11.50;;
19599;SDS011;9947;57.722;12.012;2023-05-20T03:20:12;21.73;;;11.50;;
19599;SDS011;9947;57.722;12.012;2023-05-20T03:22:42;22.37;;;11.97;;
19599;SDS011;9947;57.722;12.012;2023-05-20T03:25:11;24.10;;;11.87;;
19599;SDS011;9947;57.722;12.012;2023-05-20T03:27:38;23.83;;;11.50;;
19599;SDS011;9947;57.722;12.012;2023-05-20T03:30:11;24.27;;;11.57;;
19599;SDS011;9947;57.722;12.012;2023-05-20T03:32:39;22.13;;;10.93;;
19599;SDS011;9947;57.722;12.012;2023-05-20T03:35:11;24.73;;;12.03;;
19599;SDS011;9947;57.722;12.012;2023-05-20T03:37:39;22.00;;;11.67;;
19599;SDS011;9947;57.722;12.012;2023-05-20T03:40:07;21.87;;;10.97;;
19599;SDS011;9947;57.722;12.012;2023-05-20T03:42:36;17.50;;;10.63;;
19599;SDS011;9947;57.722;12.012;2023-05-20T03:45:05;16.87;;;11.03;;
19599;SDS011;9947;57.722;12.012;2023-05-20T03:47:38;19.73;;;10.47;;
19599;SDS011;9947;57.722;12.012;2023-05-20T03:50:06;19.20;;;11.33;;
19599;SDS011;9947;57.722;12.012;2023-05-20T03:52:33;19.03;;;10.90;;
19599;SDS011;9947;57.722;12.012;2023-05-20T03:55:02;16.87;;;10.33;;
19599;SDS011;9947;57.722;12.012;2023-05-20T03:57:32;17.13;;;10.33;;
19599;SDS011;9947;57.722;12.012;2023-05-20T04:00:00;19.00;;;11.10;;
19599;SDS011;9947;57.722;12.012;2023-05-20T04:02:39;16.83;;;10.30;;
19599;SDS011;9947;57.722;12.012;2023-05-20T04:05:07;20.07;;;11.10;;
19599;SDS011;9947;57.722;12.012;2023-05-20T04:07:39;17.63;;;10.70;;
19599;SDS011;9947;57.722;12.012;2023-05-20T04:10:07;15.13;;;9.43;;
19599;SDS011;9947;57.722;12.012;2023-05-20T04:12:38;22.83;;;10.53;;
19599;SDS011;9947;57.722;12.012;2023-05-20T04:15:06;19.23;;;10.33;;
19599;SDS011;9947;57.722;12.012;2023-05-20T04:17:36;18.90;;;11.30;;
19599;SDS011;9947;57.722;12.012;2023-05-20T04:20:07;19.33;;;11.60;;
19599;SDS011;9947;57.722;12.012;2023-05-20T04:22:35;20.37;;;11.27;;
19599;SDS011;9947;57.722;12.012;2023-05-20T04:25:05;15.87;;;10.50;;
19599;SDS011;9947;57.722;12.012;2023-05-20T04:27:34;16.73;;;11.20;;
19599;SDS011;9947;57.722;12.012;2023-05-20T04:30:02;18.00;;;10.93;;
19599;SDS011;9947;57.722;12.012;2023-05-20T04:32:30;15.80;;;10.40;;
19599;SDS011;9947;57.722;12.012;2023-05-20T04:35:03;17.50;;;10.03;;
19599;SDS011;9947;57.722;12.012;2023-05-20T04:37:50;13.93;;;9.43;;
19599;SDS011;9947;57.722;12.012;2023-05-20T04:40:21;18.00;;;9.83;;
19599;SDS011;9947;57.722;12.012;2023-05-20T04:42:51;14.43;;;9.50;;
19599;SDS011;9947;57.722;12.012;2023-05-20T04:45:22;12.93;;;8.57;;
19599;SDS011;9947;57.722;12.012;2023-05-20T04:47:51;12.83;;;8.60;;
19599;SDS011;9947;57.722;12.012;2023-05-20T04:50:22;14.90;;;8.07;;
19599;SDS011;9947;57.722;12.012;2023-05-20T04:52:50;13.03;;;8.63;;
19599;SDS011;9947;57.722;12.012;2023-05-20T04:55:18;15.30;;;8.40;;
19599;SDS011;9947;57.722;12.012;2023-05-20T04:57:47;13.90;;;8.57;;
19599;SDS011;9947;57.722;12.012;2023-05-20T05:00:18;13.17;;;8.50;;
19599;SDS011;9947;57.722;12.012;2023-05-20T05:02:45;14.23;;;8.63;;
19599;SDS011;9947;57.722;12.012;2023-05-20T05:05:14;15.67;;;9.03;;
19599;SDS011;9947;57.722;12.012;2023-05-20T05:07:47;11.80;;;7.90;;
19599;SDS011;9947;57.722;12.012;2023-05-20T05:10:14;13.93;;;7.90;;
19599;SDS011;9947;57.722;12.012;2023-05-20T05:12:43;12.77;;;7.30;;
19599;SDS011;9947;57.722;12.012;2023-05-20T05:15:10;15.02;;;8.25;;
19599;SDS011;9947;57.722;12.012;2023-05-20T05:17:37;13.27;;;7.53;;
19599;SDS011;9947;57.722;12.012;2023-05-20T05:20:04;11.65;;;7.68;;
19599;SDS011;9947;57.722;12.012;2023-05-20T05:22:36;11.00;;;7.85;;
19599;SDS011;9947;57.722;12.012;2023-05-20T05:25:07;11.13;;;7.78;;
19599;SDS011;9947;57.722;12.012;2023-05-20T05:27:35;13.55;;;8.32;;
19599;SDS011;9947;57.722;12.012;2023-05-20T05:30:04;11.30;;;7.22;;
19599;SDS011;9947;57.722;12.012;2023-05-20T05:32:33;11.82;;;7.18;;
19599;SDS011;9947;57.722;12.012;2023-05-20T05:35:02;11.50;;;7.20;;
19599;SDS011;9947;57.722;12.012;2023-05-20T05:37:29;12.45;;;7.10;;
19599;SDS011;9947;57.722;12.012;2023-05-20T05:39:57;12.15;;;7.15;;
19599;SDS011;9947;57.722;12.012;2023-05-20T05:42:29;9.73;;;6.60;;
19599;SDS011;9947;57.722;12.012;2023-05-20T05:44:56;12.73;;;8.38;;
19599;SDS011;9947;57.722;12.012;2023-05-20T05:47:27;10.95;;;8.15;;
19599;SDS011;9947;57.722;12.012;2023-05-20T05:49:56;10.13;;;7.53;;
19599;SDS011;9947;57.722;12.012;2023-05-20T05:52:24;9.90;;;7.10;;
19599;SDS011;9947;57.722;12.012;2023-05-20T05:54:54;9.95;;;7.03;;
19599;SDS011;9947;57.722;12.012;2023-05-20T05:57:24;12.68;;;7.18;;
19599;SDS011;9947;57.722;12.012;2023-05-20T05:59:54;10.50;;;6.47;;
19599;SDS011;9947;57.722;12.012;2023-05-20T06:02:22;9.82;;;6.50;;
19599;SDS011;9947;57.722;12.012;2023-05-20T06:04:49;11.50;;;7.32;;
19599;SDS011;9947;57.722;12.012;2023-05-20T06:07:17;11.45;;;7.10;;
19599;SDS011;9947;57.722;12.012;2023-05-20T06:09:44;11.82;;;7.53;;
19599;SDS011;9947;57.722;12.012;2023-05-20T06:12:14;11.93;;;6.45;;
19599;SDS011;9947;57.722;12.012;2023-05-20T06:14:41;10.10;;;6.65;;
19599;SDS011;9947;57.722;12.012;2023-05-20T06:17:11;11.30;;;6.82;;
19599;SDS011;9947;57.722;12.012;2023-05-20T06:19:40;11.20;;;6.75;;
19599;SDS011;9947;57.722;12.012;2023-05-20T06:22:08;11.57;;;6.95;;
19599;SDS011;9947;57.722;12.012;2023-05-20T06:24:36;11.77;;;7.00;;
19599;SDS011;9947;57.722;12.012;2023-05-20T06:27:05;9.88;;;6.03;;
19599;SDS011;9947;57.722;12.012;2023-05-20T06:29:32;10.43;;;6.72;;
19599;SDS011;9947;57.722;12.012;2023-05-20T06:32:04;12.25;;;7.28;;
19599;SDS011;9947;57.722;12.012;2023-05-20T06:34:41;9.85;;;7.30;;
19599;SDS011;9947;57.722;12.012;2023-05-20T06:37:08;12.27;;;6.82;;
19599;SDS011;9947;57.722;12.012;2023-05-20T06:39:40;11.52;;;7.63;;
19599;SDS011;9947;57.722;12.012;2023-05-20T06:42:08;11.27;;;6.85;;
19599;SDS011;9947;57.722;12.012;2023-05-20T06:44:40;12.55;;;6.13;;
19599;SDS011;9947;57.722;12.012;2023-05-20T06:47:12;11.73;;;6.30;;
19599;SDS011;9947;57.722;12.012;2023-05-20T06:49:43;11.27;;;6.23;;
19599;SDS011;9947;57.722;12.012;2023-05-20T06:52:11;9.13;;;5.53;;
19599;SDS011;9947;57.722;12.012;2023-05-20T06:54:55;11.53;;;5.97;;
19599;SDS011;9947;57.722;12.012;2023-05-20T06:57:26;8.27;;;5.53;;
19599;SDS011;9947;57.722;12.012;2023-05-20T06:59:55;9.87;;;5.47;;
19599;SDS011;9947;57.722;12.012;2023-05-20T07:02:27;8.43;;;5.10;;
19599;SDS011;9947;57.722;12.012;2023-05-20T07:04:59;8.37;;;5.20;;
19599;SDS011;9947;57.722;12.012;2023-05-20T07:07:27;8.00;;;5.07;;
19599;SDS011;9947;57.722;12.012;2023-05-20T07:09:54;9.27;;;5.87;;
19599;SDS011;9947;57.722;12.012;2023-05-20T07:12:23;10.97;;;5.50;;
19599;SDS011;9947;57.722;12.012;2023-05-20T07:14:54;9.70;;;5.27;;
19599;SDS011;9947;57.722;12.012;2023-05-20T07:17:21;7.37;;;4.70;;
19599;SDS011;9947;57.722;12.012;2023-05-20T07:19:54;9.40;;;5.10;;
19599;SDS011;9947;57.722;12.012;2023-05-20T07:22:23;8.27;;;4.93;;
19599;SDS011;9947;57.722;12.012;2023-05-20T07:24:56;11.20;;;5.40;;
19599;SDS011;9947;57.722;12.012;2023-05-20T07:27:25;11.77;;;5.40;;
19599;SDS011;9947;57.722;12.012;2023-05-20T07:29:52;8.93;;;5.00;;
19599;SDS011;9947;57.722;12.012;2023-05-20T07:32:20;5.40;;;4.40;;
19599;SDS011;9947;57.722;12.012;2023-05-20T07:34:47;9.57;;;5.10;;
19599;SDS011;9947;57.722;12.012;2023-05-20T07:37:19;12.20;;;4.53;;
19599;SDS011;9947;57.722;12.012;2023-05-20T07:39:48;11.10;;;5.30;;
19599;SDS011;9947;57.722;12.012;2023-05-20T07:42:20;8.67;;;5.10;;
19599;SDS011;9947;57.722;12.012;2023-05-20T07:44:49;9.47;;;4.63;;
19599;SDS011;9947;57.722;12.012;2023-05-20T07:47:17;8.70;;;4.70;;
19599;SDS011;9947;57.722;12.012;2023-05-20T07:49:45;10.93;;;5.50;;
19599;SDS011;9947;57.722;12.012;2023-05-20T07:52:13;8.23;;;4.53;;
19599;SDS011;9947;57.722;12.012;2023-05-20T07:54:45;6.67;;;4.83;;
19599;SDS011;9947;57.722;12.012;2023-05-20T07:57:14;7.17;;;4.07;;
19599;SDS011;9947;57.722;12.012;2023-05-20T07:59:41;8.80;;;4.30;;
19599;SDS011;9947;57.722;12.012;2023-05-20T08:02:10;6.60;;;4.03;;
19599;SDS011;9947;57.722;12.012;2023-05-20T08:04:37;5.93;;;4.20;;
19599;SDS011;9947;57.722;12.012;2023-05-20T08:07:06;7.10;;;3.77;;
19599;SDS011;9947;57.722;12.012;2023-05-20T08:09:33;4.90;;;3.47;;
19599;SDS011;9947;57.722;12.012;2023-05-20T08:12:00;6.97;;;3.60;;
19599;SDS011;9947;57.722;12.012;2023-05-20T08:14:30;8.67;;;4.10;;
19599;SDS011;9947;57.722;12.012;2023-05-20T08:17:00;5.93;;;4.23;;
19599;SDS011;9947;57.722;12.012;2023-05-20T08:19:30;6.10;;;3.70;;
19599;SDS011;9947;57.722;12.012;2023-05-20T08:21:58;5.83;;;3.73;;
19599;SDS011;9947;57.722;12.012;2023-05-20T08:24:27;4.83;;;3.80;;
19599;SDS011;9947;57.722;12.012;2023-05-20T08:26:57;6.20;;;3.83;;
19599;SDS011;9947;57.722;12.012;2023-05-20T08:29:25;12.33;;;4.67;;
19599;SDS011;9947;57.722;12.012;2023-05-20T08:31:55;7.37;;;3.30;;
19599;SDS011;9947;57.722;12.012;2023-05-20T08:34:23;6.90;;;3.40;;
19599;SDS011;9947;57.722;12.012;2023-05-20T08:36:50;4.30;;;3.23;;
19599;SDS011;9947;57.722;12.012;2023-05-20T08:39:17;5.47;;;3.10;;
19599;SDS011;9947;57.722;12.012;2023-05-20T08:41:46;4.73;;;3.33;;
19599;SDS011;9947;57.722;12.012;2023-05-20T08:44:13;10.13;;;3.30;;
19599;SDS011;9947;57.722;12.012;2023-05-20T08:46:43;6.13;;;3.63;;
19599;SDS011;9947;57.722;12.012;2023-05-20T08:49:16;4.60;;;3.53;;
19599;SDS011;9947;57.722;12.012;2023-05-20T08:51:44;7.60;;;3.87;;
19599;SDS011;9947;57.722;12.012;2023-05-20T08:54:13;5.17;;;3.30;;
19599;SDS011;9947;57.722;12.012;2023-05-20T08:56:43;7.60;;;3.57;;
19599;SDS011;9947;57.722;12.012;2023-05-20T08:59:13;5.80;;;3.97;;
19599;SDS011;9947;57.722;12.012;2023-05-20T09:01:41;5.50;;;3.60;;
19599;SDS011;9947;57.722;12.012;2023-05-20T09:04:09;7.07;;;3.20;;
19599;SDS011;9947;57.722;12.012;2023-05-20T09:06:44;3.40;;;3.00;;
19599;SDS011;9947;57.722;12.012;2023-05-20T09:09:14;5.60;;;3.53;;
19599;SDS011;9947;57.722;12.012;2023-05-20T09:11:41;7.20;;;3.43;;
19599;SDS011;9947;57.722;12.012;2023-05-20T09:14:11;6.00;;;3.60;;
19599;SDS011;9947;57.722;12.012;2023-05-20T09:16:39;6.67;;;3.80;;
19599;SDS011;9947;57.722;12.012;2023-05-20T09:19:08;8.73;;;4.20;;
19599;SDS011;9947;57.722;12.012;2023-05-20T09:21:36;6.22;;;4.05;;
19599;SDS011;9947;57.722;12.012;2023-05-20T09:24:19;6.83;;;3.73;;
19599;SDS011;9947;57.722;12.012;2023-05-20T09:26:51;8.07;;;4.10;;
19599;SDS011;9947;57.722;12.012;2023-05-20T09:29:19;7.97;;;4.00;;
19599;SDS011;9947;57.722;12.012;2023-05-20T09:31:46;10.13;;;4.23;;
19599;SDS011;9947;57.722;12.012;2023-05-20T09:34:13;7.83;;;4.07;;
19599;SDS011;9947;57.722;12.012;2023-05-20T09:36:43;4.30;;;3.30;;
19599;SDS011;9947;57.722;12.012;2023-05-20T09:39:12;5.40;;;3.40;;
19599;SDS011;9947;57.722;12.012;2023-05-20T09:41:46;6.43;;;3.83;;
19599;SDS011;9947;57.722;12.012;2023-05-20T09:44:20;6.43;;;3.75;;
19599;SDS011;9947;57.722;12.012;2023-05-20T09:46:49;5.82;;;3.72;;
19599;SDS011;9947;57.722;12.012;2023-05-20T09:49:16;6.55;;;3.33;;
19599;SDS011;9947;57.722;12.012;2023-05-20T09:51:58;7.07;;;3.83;;
19599;SDS011;9947;57.722;12.012;2023-05-20T09:54:37;5.47;;;3.58;;
19599;SDS011;9947;57.722;12.012;2023-05-20T09:57:07;6.30;;;3.58;;
19599;SDS011;9947;57.722;12.012;2023-05-20T09:59:36;8.30;;;3.80;;
19599;SDS011;9947;57.722;12.012;2023-05-20T10:02:06;5.20;;;3.50;;
19599;SDS011;9947;57.722;12.012;2023-05-20T10:04:36;5.40;;;3.42;;
19599;SDS011;9947;57.722;12.012;2023-05-20T10:07:40;6.05;;;3.15;;
19599;SDS011;9947;57.722;12.012;2023-05-20T10:10:32;6.05;;;3.40;;
19599;SDS011;9947;57.722;12.012;2023-05-20T10:13:36;7.97;;;3.53;;
19599;SDS011;9947;57.722;12.012;2023-05-20T10:16:42;5.47;;;3.23;;
19599;SDS011;9947;57.722;12.012;2023-05-20T10:19:34;7.40;;;3.30;;
19599;SDS011;9947;57.722;12.012;2023-05-20T10:22:04;4.93;;;3.70;;
19599;SDS011;9947;57.722;12.012;2023-05-20T10:24:33;7.90;;;4.17;;
19599;SDS011;9947;57.722;12.012;2023-05-20T10:27:18;7.20;;;4.40;;
19599;SDS011;9947;57.722;12.012;2023-05-20T10:29:49;8.03;;;4.00;;
19599;SDS011;9947;57.722;12.012;2023-05-20T10:32:25;7.63;;;4.30;;
19599;SDS011;9947;57.722;12.012;2023-05-20T10:34:57;9.47;;;4.90;;
19599;SDS011;9947;57.722;12.012;2023-05-20T10:37:30;8.73;;;4.63;;
19599;SDS011;9947;57.722;12.012;2023-05-20T10:40:04;12.83;;;5.30;;
19599;SDS011;9947;57.722;12.012;2023-05-20T10:42:34;8.48;;;5.07;;
19599;SDS011;9947;57.722;12.012;2023-05-20T10:45:02;8.93;;;5.00;;
19599;SDS011;9947;57.722;12.012;2023-05-20T10:47:32;6.95;;;5.03;;
19599;SDS011;9947;57.722;12.012;2023-05-20T10:50:03;10.10;;;5.10;;
19599;SDS011;9947;57.722;12.012;2023-05-20T10:52:32;7.97;;;4.87;;
19599;SDS011;9947;57.722;12.012;2023-05-20T10:55:02;7.87;;;5.20;;
19599;SDS011;9947;57.722;12.012;2023-05-20T10:57:29;10.57;;;4.80;;
19599;SDS011;9947;57.722;12.012;2023-05-20T11:00:02;12.70;;;5.07;;
19599;SDS011;9947;57.722;12.012;2023-05-20T11:02:30;11.57;;;4.60;;
19599;SDS011;9947;57.722;12.012;2023-05-20T11:04:59;8.10;;;4.47;;
19599;SDS011;9947;57.722;12.012;2023-05-20T11:07:33;11.47;;;5.60;;
19599;SDS011;9947;57.722;12.012;2023-05-20T11:10:06;9.93;;;5.57;;
19599;SDS011;9947;57.722;12.012;2023-05-20T11:12:37;10.00;;;5.50;;
19599;SDS011;9947;57.722;12.012;2023-05-20T11:15:07;8.30;;;4.70;;
19599;SDS011;9947;57.722;12.012;2023-05-20T11:17:38;8.53;;;5.17;;
19599;SDS011;9947;57.722;12.012;2023-05-20T11:20:18;7.30;;;5.13;;
19599;SDS011;9947;57.722;12.012;2023-05-20T11:22:46;9.02;;;5.47;;
19599;SDS011;9947;57.722;12.012;2023-05-20T11:25:15;8.57;;;5.50;;
19599;SDS011;9947;57.722;12.012;2023-05-20T11:27:45;10.32;;;5.80;;
19599;SDS011;9947;57.722;12.012;2023-05-20T11:30:15;12.53;;;6.73;;
19599;SDS011;9947;57.722;12.012;2023-05-20T11:32:55;12.70;;;6.13;;
19599;SDS011;9947;57.722;12.012;2023-05-20T11:35:25;13.07;;;5.97;;
19599;SDS011;9947;57.722;12.012;2023-05-20T11:38:00;11.67;;;6.17;;
19599;SDS011;9947;57.722;12.012;2023-05-20T11:40:30;11.60;;;5.97;;
19599;SDS011;9947;57.722;12.012;2023-05-20T11:43:00;9.17;;;6.00;;
19599;SDS011;9947;57.722;12.012;2023-05-20T11:45:39;12.97;;;6.10;;
19599;SDS011;9947;57.722;12.012;2023-05-20T11:48:09;8.10;;;5.82;;
19599;SDS011;9947;57.722;12.012;2023-05-20T11:50:40;10.80;;;6.17;;
19599;SDS011;9947;57.722;12.012;2023-05-20T11:53:09;11.13;;;6.00;;
19599;SDS011;9947;57.722;12.012;2023-05-20T11:55:43;10.17;;;6.00;;
19599;SDS011;9947;57.722;12.012;2023-05-20T11:58:21;13.40;;;5.93;;
19599;SDS011;9947;57.722;12.012;2023-05-20T12:00:52;18.57;;;6.60;;
19599;SDS011;9947;57.722;12.012;2023-05-20T12:03:21;11.43;;;6.67;;
19599;SDS011;9947;57.722;12.012;2023-05-20T12:05:53;10.73;;;6.20;;
19599;SDS011;9947;57.722;12.012;2023-05-20T12:08:25;11.37;;;6.33;;
19599;SDS011;9947;57.722;12.012;2023-05-20T12:10:54;9.07;;;6.03;;
19599;SDS011;9947;57.722;12.012;2023-05-20T12:13:21;10.77;;;6.27;;
19599;SDS011;9947;57.722;12.012;2023-05-20T12:15:49;10.87;;;6.47;;
19599;SDS011;9947;57.722;12.012;2023-05-20T12:18:24;15.20;;;6.33;;
19599;SDS011;9947;57.722;12.012;2023-05-20T12:20:53;8.37;;;5.50;;
19599;SDS011;9947;57.722;12.012;2023-05-20T12:23:21;9.77;;;5.60;;
19599;SDS011;9947;57.722;12.012;2023-05-20T12:25:50;10.30;;;5.57;;
19599;SDS011;9947;57.722;12.012;2023-05-20T12:28:19;9.73;;;5.53;;
19599;SDS011;9947;57.722;12.012;2023-05-20T12:30:47;11.73;;;6.20;;
19599;SDS011;9947;57.722;12.012;2023-05-20T12:33:14;7.83;;;5.30;;
19599;SDS011;9947;57.722;12.012;2023-05-20T12:35:44;9.40;;;5.10;;
19599;SDS011;9947;57.722;12.012;2023-05-20T12:38:17;7.60;;;5.10;;
19599;SDS011;9947;57.722;12.012;2023-05-20T12:40:46;7.97;;;5.33;;
19599;SDS011;9947;57.722;12.012;2023-05-20T12:43:13;12.67;;;5.80;;
19599;SDS011;9947;57.722;12.012;2023-05-20T12:45:41;10.80;;;5.27;;
19599;SDS011;9947;57.722;12.012;2023-05-20T12:48:08;9.53;;;5.57;;
19599;SDS011;9947;57.722;12.012;2023-05-20T12:50:39;7.40;;;5.57;;
19599;SDS011;9947;57.722;12.012;2023-05-20T12:53:10;10.70;;;5.83;;
19599;SDS011;9947;57.722;12.012;2023-05-20T12:55:37;9.43;;;5.20;;
19599;SDS011;9947;57.722;12.012;2023-05-20T12:58:08;8.93;;;5.40;;
19599;SDS011;9947;57.722;12.012;2023-05-20T13:00:37;11.93;;;5.50;;
19599;SDS011;9947;57.722;12.012;2023-05-20T13:03:06;9.57;;;4.87;;
19599;SDS011;9947;57.722;12.012;2023-05-20T13:05:37;10.07;;;5.00;;
19599;SDS011;9947;57.722;12.012;2023-05-20T13:08:04;6.87;;;4.70;;
19599;SDS011;9947;57.722;12.012;2023-05-20T13:10:36;9.80;;;5.20;;
19599;SDS011;9947;57.722;12.012;2023-05-20T13:13:04;7.40;;;4.80;;
19599;SDS011;9947;57.722;12.012;2023-05-20T13:15:33;8.37;;;4.60;;
19599;SDS011;9947;57.722;12.012;2023-05-20T13:18:04;8.47;;;4.50;;
19599;SDS011;9947;57.722;12.012;2023-05-20T13:20:34;9.07;;;4.60;;
19599;SDS011;9947;57.722;12.012;2023-05-20T13:23:03;9.47;;;5.00;;
19599;SDS011;9947;57.722;12.012;2023-05-20T13:25:33;8.73;;;4.80;;
19599;SDS011;9947;57.722;12.012;2023-05-20T13:28:04;6.27;;;4.80;;
19599;SDS011;9947;57.722;12.012;2023-05-20T13:30:32;7.30;;;5.13;;
19599;SDS011;9947;57.722;12.012;2023-05-20T13:32:59;9.97;;;5.23;;
19599;SDS011;9947;57.722;12.012;2023-05-20T13:35:32;7.17;;;4.43;;
19599;SDS011;9947;57.722;12.012;2023-05-20T13:38:02;9.10;;;4.60;;
19599;SDS011;9947;57.722;12.012;2023-05-20T13:40:34;8.87;;;4.77;;
19599;SDS011;9947;57.722;12.012;2023-05-20T13:43:05;7.83;;;4.70;;
19599;SDS011;9947;57.722;12.012;2023-05-20T13:45:31;8.73;;;4.67;;
19599;SDS011;9947;57.722;12.012;2023-05-20T13:48:10;6.47;;;4.50;;
19599;SDS011;9947;57.722;12.012;2023-05-20T13:50:38;9.83;;;4.60;;
19599;SDS011;9947;57.722;12.012;2023-05-20T13:53:06;8.17;;;4.63;;
19599;SDS011;9947;57.722;12.012;2023-05-20T13:55:36;6.57;;;4.10;;
19599;SDS011;9947;57.722;12.012;2023-05-20T13:58:16;9.67;;;4.33;;
19599;SDS011;9947;57.722;12.012;2023-05-20T14:00:43;8.43;;;4.33;;
19599;SDS011;9947;57.722;12.012;2023-05-20T14:03:12;5.53;;;4.17;;
19599;SDS011;9947;57.722;12.012;2023-05-20T14:05:47;6.23;;;3.97;;
19599;SDS011;9947;57.722;12.012;2023-05-20T14:08:18;7.43;;;4.47;;
19599;SDS011;9947;57.722;12.012;2023-05-20T14:10:46;10.60;;;4.90;;
19599;SDS011;9947;57.722;12.012;2023-05-20T14:13:15;7.53;;;4.60;;
19599;SDS011;9947;57.722;12.012;2023-05-20T14:15:47;10.30;;;5.37;;
19599;SDS011;9947;57.722;12.012;2023-05-20T14:18:19;12.57;;;4.50;;
19599;SDS011;9947;57.722;12.012;2023-05-20T14:20:47;9.93;;;4.07;;
19599;SDS011;9947;57.722;12.012;2023-05-20T14:23:20;8.90;;;4.33;;
19599;SDS011;9947;57.722;12.012;2023-05-20T14:25:47;7.13;;;3.97;;
19599;SDS011;9947;57.722;12.012;2023-05-20T14:28:17;6.83;;;4.00;;
19599;SDS011;9947;57.722;12.012;2023-05-20T14:30:45;6.73;;;3.93;;
19599;SDS011;9947;57.722;12.012;2023-05-20T14:33:23;6.23;;;3.97;;
19599;SDS011;9947;57.722;12.012;2023-05-20T14:35:52;7.10;;;4.03;;
19599;SDS011;9947;57.722;12.012;2023-05-20T14:38:24;5.60;;;3.70;;
19599;SDS011;9947;57.722;12.012;2023-05-20T14:40:55;7.37;;;4.00;;
19599;SDS011;9947;57.722;12.012;2023-05-20T14:43:26;4.90;;;3.70;;
19599;SDS011;9947;57.722;12.012;2023-05-20T14:45:54;6.30;;;4.00;;
19599;SDS011;9947;57.722;12.012;2023-05-20T14:48:27;6.10;;;3.83;;
19599;SDS011;9947;57.722;12.012;2023-05-20T14:51:00;12.33;;;4.63;;
19599;SDS011;9947;57.722;12.012;2023-05-20T14:53:29;15.17;;;4.80;;